createdAt,value
2023-05-06T00:00:48.905Z,99.99
2023-05-06T00:01:48.893Z,99.99
2023-05-06T00:02:48.930Z,99.99
2023-05-06T00:03:49.123Z,99.99
2023-05-06T00:04:48.946Z,99.99
2023-05-06T00:05:48.869Z,99.99
2023-05-06T00:06:48.847Z,99.99
2023-05-06T00:07:48.831Z,99.99
2023-05-06T00:08:48.823Z,99.99
2023-05-06T00:09:48.806Z,99.99
2023-05-06T00:10:48.867Z,99.99
2023-05-06T00:11:48.783Z,99.99
2023-05-06T00:12:48.810Z,99.99
2023-05-06T00:13:48.770Z,99.99
2023-05-06T00:14:48.760Z,99.99
2023-05-06T00:15:48.753Z,99.99
2023-05-06T00:16:48.824Z,99.99
2023-05-06T00:17:48.735Z,99.99
2023-05-06T00:18:48.723Z,99.99
2023-05-06T00:19:48.693Z,99.99
2023-05-06T00:20:48.698Z,99.99
2023-05-06T00:21:48.760Z,99.99
2023-05-06T00:22:48.676Z,99.99
2023-05-06T00:23:48.647Z,99.99
2023-05-06T00:24:48.657Z,99.99
2023-05-06T00:25:48.636Z,99.99
2023-05-06T00:26:48.624Z,99.99
2023-05-06T00:27:48.609Z,99.99
2023-05-06T00:28:48.623Z,99.99
2023-05-06T00:29:48.580Z,99.99
2023-05-06T00:30:48.604Z,99.99
2023-05-06T00:31:48.594Z,99.99
2023-05-06T00:32:48.608Z,99.99
2023-05-06T00:33:48.541Z,99.99
2023-05-06T00:34:48.555Z,99.99
2023-05-06T00:35:48.517Z,99.99
2023-05-06T00:36:48.522Z,99.99
2023-05-06T00:37:48.642Z,99.99
2023-05-06T00:38:48.491Z,99.99
2023-05-06T00:39:48.478Z,99.99
2023-05-06T00:40:48.513Z,99.99
2023-05-06T00:41:48.455Z,99.99
2023-05-06T00:42:48.486Z,99.99
2023-05-06T00:43:48.435Z,99.99
2023-05-06T00:44:48.425Z,99.99
2023-05-06T00:45:48.435Z,99.99
2023-05-06T00:46:48.433Z,99.99
2023-05-06T00:47:48.452Z,99.99
2023-05-06T00:48:48.395Z,99.99
2023-05-06T00:49:48.380Z,99.99
2023-05-06T00:50:48.358Z,99.99
2023-05-06T00:51:48.354Z,99.99
2023-05-06T00:52:48.373Z,99.99
2023-05-06T00:53:48.416Z,99.99
2023-05-06T00:54:48.317Z,99.99
2023-05-06T00:55:48.302Z,99.99
2023-05-06T00:56:48.331Z,99.99
2023-05-06T00:57:48.283Z,99.99
2023-05-06T00:58:48.308Z,99.99
2023-05-06T00:59:48.269Z,99.99
2023-05-06T01:00:48.264Z,99.99
2023-05-06T01:01:48.250Z,99.99
2023-05-06T01:02:48.534Z,99.99
2023-05-06T01:03:48.327Z,99.99
2023-05-06T01:04:48.228Z,99.99
2023-05-06T01:05:48.200Z,99.99
2023-05-06T01:06:48.183Z,99.99
2023-05-06T01:07:48.174Z,99.99
2023-05-06T01:08:48.183Z,99.99
2023-05-06T01:09:48.270Z,99.99
2023-05-06T01:10:48.166Z,99.99
2023-05-06T01:11:48.130Z,99.99
2023-05-06T01:12:48.155Z,99.99
2023-05-06T01:13:48.112Z,99.99
2023-05-06T01:14:48.112Z,99.99
2023-05-06T01:15:48.086Z,99.99
2023-05-06T01:16:48.166Z,99.99
2023-05-06T01:17:48.091Z,99.99
2023-05-06T01:18:48.062Z,99.99
2023-05-06T01:19:48.054Z,99.99
2023-05-06T01:20:48.047Z,99.99
2023-05-06T01:21:48.046Z,99.99
2023-05-06T01:22:48.076Z,99.99
2023-05-06T01:23:48.006Z,99.99
2023-05-06T01:24:48.022Z,99.99
2023-05-06T01:25:48.129Z,99.99
2023-05-06T01:26:47.983Z,99.99
2023-05-06T01:27:47.978Z,99.99
2023-05-06T01:28:47.988Z,99.99
2023-05-06T01:29:47.960Z,99.99
2023-05-06T01:30:47.979Z,99.99
2023-05-06T01:31:47.917Z,99.99
2023-05-06T01:32:47.952Z,99.99
2023-05-06T01:33:47.895Z,99.99
2023-05-06T01:34:47.912Z,99.99
2023-05-06T01:35:47.900Z,99.99
2023-05-06T01:36:47.888Z,99.99
2023-05-06T01:37:47.876Z,99.99
2023-05-06T01:38:47.848Z,99.99
2023-05-06T01:39:47.840Z,99.99
2023-05-06T01:40:47.840Z,99.99
2023-05-06T01:41:47.832Z,99.99
2023-05-06T01:42:47.805Z,99.99
2023-05-06T01:43:47.786Z,99.99
2023-05-06T01:44:47.792Z,99.99
2023-05-06T01:45:47.770Z,99.99
2023-05-06T01:46:47.804Z,99.99
2023-05-06T01:47:47.835Z,99.99
2023-05-06T01:48:47.735Z,99.99
2023-05-06T01:49:47.721Z,99.99
2023-05-06T01:50:47.714Z,99.99
2023-05-06T01:51:47.703Z,99.99
2023-05-06T01:52:47.739Z,99.99
2023-05-06T01:53:47.693Z,99.99
2023-05-06T01:54:47.669Z,99.99
2023-05-06T01:55:47.656Z,99.99
2023-05-06T01:56:47.647Z,99.99
2023-05-06T01:57:47.732Z,99.99
2023-05-06T01:58:47.653Z,99.99
2023-05-06T01:59:47.614Z,99.99
2023-05-06T02:00:47.606Z,99.99
2023-05-06T02:01:47.613Z,99.99
2023-05-06T02:02:47.799Z,99.99
2023-05-06T02:03:47.895Z,99.99
2023-05-06T02:04:47.574Z,99.99
2023-05-06T02:05:47.551Z,99.99
2023-05-06T02:06:47.541Z,99.99
2023-05-06T02:07:47.538Z,99.99
2023-05-06T02:08:47.518Z,99.99
2023-05-06T02:09:47.520Z,99.99
2023-05-06T02:10:47.496Z,99.99
2023-05-06T02:11:47.491Z,99.99
2023-05-06T02:12:47.495Z,99.99
2023-05-06T02:13:47.482Z,99.99
2023-05-06T02:14:47.454Z,99.99
2023-05-06T02:15:47.482Z,99.99
2023-05-06T02:16:47.442Z,99.99
2023-05-06T02:17:47.487Z,99.99
2023-05-06T02:18:47.407Z,99.99
2023-05-06T02:19:47.394Z,99.99
2023-05-06T02:20:47.400Z,99.99
2023-05-06T02:21:47.390Z,99.99
2023-05-06T02:22:47.366Z,99.99
2023-05-06T02:23:47.375Z,99.99
2023-05-06T02:24:47.344Z,99.99
2023-05-06T02:25:47.329Z,99.99
2023-05-06T02:26:47.335Z,99.99
2023-05-06T02:27:47.322Z,99.99
2023-05-06T02:28:47.307Z,99.99
2023-05-06T02:29:47.408Z,99.99
2023-05-06T02:30:47.292Z,99.99
2023-05-06T02:31:47.278Z,99.99
2023-05-06T02:32:47.345Z,99.99
2023-05-06T02:33:47.258Z,99.99
2023-05-06T02:34:47.235Z,99.99
2023-05-06T02:35:47.220Z,99.99
2023-05-06T02:36:47.229Z,99.99
2023-05-06T02:37:47.199Z,99.99
2023-05-06T02:38:47.191Z,99.99
2023-05-06T02:39:47.193Z,99.99
2023-05-06T02:40:47.186Z,99.99
2023-05-06T02:41:47.159Z,99.99
2023-05-06T02:42:47.205Z,99.99
2023-05-06T02:43:47.146Z,99.99
2023-05-06T02:44:47.126Z,99.99
2023-05-06T02:45:47.237Z,99.99
2023-05-06T02:46:47.114Z,99.99
2023-05-06T02:47:47.112Z,99.99
2023-05-06T02:48:47.085Z,99.99
2023-05-06T02:49:47.067Z,99.99
2023-05-06T02:50:47.063Z,99.99
2023-05-06T02:51:47.090Z,99.99
2023-05-06T02:52:47.038Z,99.99
2023-05-06T02:53:47.026Z,99.99
2023-05-06T02:54:47.027Z,99.99
2023-05-06T02:55:47.004Z,99.99
2023-05-06T02:56:47.024Z,99.99
2023-05-06T02:57:47.000Z,99.99
2023-05-06T02:58:46.971Z,99.99
2023-05-06T02:59:46.963Z,99.99
2023-05-06T03:00:46.997Z,99.99
2023-05-06T03:01:47.078Z,99.99
2023-05-06T03:02:46.998Z,99.99
2023-05-06T03:03:46.940Z,99.99
2023-05-06T03:04:46.907Z,99.99
2023-05-06T03:05:46.895Z,99.99
2023-05-06T03:06:46.900Z,99.99
2023-05-06T03:07:46.899Z,99.99
2023-05-06T03:08:46.875Z,99.99
2023-05-06T03:09:46.876Z,99.99
2023-05-06T03:10:46.842Z,99.99
2023-05-06T03:11:46.832Z,99.99
2023-05-06T03:12:46.884Z,99.99
2023-05-06T03:13:46.805Z,99.99
2023-05-06T03:14:46.810Z,99.99
2023-05-06T03:15:46.809Z,99.99
2023-05-06T03:16:46.824Z,99.99
2023-05-06T03:17:46.879Z,99.99
2023-05-06T03:18:46.771Z,99.99
2023-05-06T03:19:46.758Z,99.99
2023-05-06T03:20:46.737Z,99.99
2023-05-06T03:21:46.773Z,99.99
2023-05-06T03:22:46.723Z,99.99
2023-05-06T03:23:46.695Z,99.99
2023-05-06T03:24:46.694Z,99.99
2023-05-06T03:25:46.676Z,99.99
2023-05-06T03:26:46.672Z,99.99
2023-05-06T03:27:46.672Z,99.99
2023-05-06T03:28:46.656Z,99.99
2023-05-06T03:29:46.639Z,99.99
2023-05-06T03:30:46.640Z,99.99
2023-05-06T03:31:46.681Z,99.99
2023-05-06T03:32:46.656Z,99.99
2023-05-06T03:33:46.612Z,99.99
2023-05-06T03:34:46.595Z,99.99
2023-05-06T03:35:46.570Z,99.99
2023-05-06T03:36:46.564Z,99.99
2023-05-06T03:37:46.544Z,99.99
2023-05-06T03:38:46.537Z,99.99
2023-05-06T03:39:46.557Z,99.99
2023-05-06T03:40:46.530Z,99.99
2023-05-06T03:41:46.502Z,99.99
2023-05-06T03:42:46.493Z,99.99
2023-05-06T03:43:46.478Z,99.99
2023-05-06T03:44:46.487Z,99.99
2023-05-06T03:45:46.579Z,99.99
2023-05-06T03:46:46.462Z,99.99
2023-05-06T03:47:46.808Z,99.99
2023-05-06T03:48:46.426Z,99.99
2023-05-06T03:49:46.513Z,99.99
2023-05-06T03:50:46.422Z,99.99
2023-05-06T03:51:46.392Z,99.99
2023-05-06T03:52:46.385Z,99.99
2023-05-06T03:53:46.372Z,99.99
2023-05-06T03:54:46.370Z,99.99
2023-05-06T03:55:46.360Z,99.99
2023-05-06T03:56:46.355Z,99.99
2023-05-06T03:57:46.351Z,99.99
2023-05-06T03:58:46.335Z,99.99
2023-05-06T03:59:46.311Z,99.99
2023-05-06T04:00:46.296Z,99.99
2023-05-06T04:01:46.327Z,99.99
2023-05-06T04:02:46.349Z,99.99
2023-05-06T04:03:46.280Z,99.99
2023-05-06T04:04:46.256Z,99.99
2023-05-06T04:05:46.293Z,99.99
2023-05-06T04:06:46.230Z,99.99
2023-05-06T04:07:46.231Z,99.99
2023-05-06T04:08:46.234Z,99.99
2023-05-06T04:09:46.194Z,99.99
2023-05-06T04:10:46.183Z,99.99
2023-05-06T04:11:46.182Z,99.99
2023-05-06T04:12:46.195Z,99.99
2023-05-06T04:13:46.160Z,99.99
2023-05-06T04:14:46.173Z,99.99
2023-05-06T04:15:46.126Z,99.99
2023-05-06T04:16:46.230Z,99.99
2023-05-06T04:17:46.126Z,99.99
2023-05-06T04:18:46.127Z,99.99
2023-05-06T04:19:46.094Z,99.99
2023-05-06T04:20:46.090Z,99.99
2023-05-06T04:21:46.233Z,99.99
2023-05-06T04:22:46.056Z,99.99
2023-05-06T04:23:46.040Z,99.99
2023-05-06T04:24:46.043Z,99.99
2023-05-06T04:25:46.020Z,99.99
2023-05-06T04:26:46.042Z,99.99
2023-05-06T04:27:46.000Z,99.99
2023-05-06T04:28:46.001Z,99.99
2023-05-06T04:29:45.991Z,99.99
2023-05-06T04:30:46.000Z,99.99
2023-05-06T04:31:45.998Z,99.99
2023-05-06T04:32:45.979Z,99.99
2023-05-06T04:33:45.944Z,99.99
2023-05-06T04:34:45.924Z,99.99
2023-05-06T04:35:45.933Z,99.99
2023-05-06T04:36:45.915Z,99.99
2023-05-06T04:37:46.075Z,99.99
2023-05-06T04:38:45.907Z,99.99
2023-05-06T04:39:45.875Z,99.99
2023-05-06T04:40:45.878Z,99.99
2023-05-06T04:41:45.851Z,99.99
2023-05-06T04:42:45.848Z,99.99
2023-05-06T04:43:45.829Z,99.99
2023-05-06T04:44:45.844Z,99.99
2023-05-06T04:45:45.841Z,99.99
2023-05-06T04:46:45.798Z,99.99
2023-05-06T04:47:45.806Z,99.99
2023-05-06T04:48:45.784Z,99.99
2023-05-06T04:49:45.778Z,99.99
2023-05-06T04:50:45.784Z,99.99
2023-05-06T04:51:45.750Z,99.99
2023-05-06T04:52:45.731Z,99.99
2023-05-06T04:53:45.830Z,99.99
2023-05-06T04:54:45.872Z,99.99
2023-05-06T04:55:45.708Z,99.99
2023-05-06T04:56:45.706Z,99.99
2023-05-06T04:57:45.684Z,99.99
2023-05-06T04:58:45.665Z,99.99
2023-05-06T04:59:45.667Z,99.99
2023-05-06T05:00:45.638Z,99.99
2023-05-06T05:01:45.731Z,99.99
2023-05-06T05:02:45.710Z,99.99
2023-05-06T05:03:45.658Z,99.99
2023-05-06T05:04:45.599Z,99.99
2023-05-06T05:05:45.602Z,99.99
2023-05-06T05:06:45.579Z,99.99
2023-05-06T05:07:45.568Z,99.99
2023-05-06T05:08:45.574Z,99.99
2023-05-06T05:09:45.574Z,99.99
2023-05-06T05:10:45.538Z,99.99
2023-05-06T05:11:45.542Z,99.99
2023-05-06T05:12:45.570Z,99.99
2023-05-06T05:13:45.501Z,99.99
2023-05-06T05:14:45.520Z,99.99
2023-05-06T05:15:45.500Z,99.99
2023-05-06T05:16:45.497Z,99.99
2023-05-06T05:17:45.477Z,99.99
2023-05-06T05:18:45.448Z,99.99
2023-05-06T05:19:45.469Z,99.99
2023-05-06T05:20:45.426Z,99.99
2023-05-06T05:21:45.426Z,99.99
2023-05-06T05:22:45.401Z,99.99
2023-05-06T05:23:45.396Z,99.99
2023-05-06T05:24:45.379Z,99.99
2023-05-06T05:25:45.404Z,99.99
2023-05-06T05:26:45.369Z,99.99
2023-05-06T05:27:45.348Z,99.99
2023-05-06T05:28:45.341Z,99.99
2023-05-06T05:29:45.325Z,99.99
2023-05-06T05:30:45.324Z,99.99
2023-05-06T05:31:45.362Z,99.99
2023-05-06T05:32:45.371Z,99.99
2023-05-06T05:33:45.313Z,99.99
2023-05-06T05:34:45.270Z,99.99
2023-05-06T05:35:45.275Z,99.99
2023-05-06T05:36:45.257Z,99.99
2023-05-06T05:37:45.265Z,99.99
2023-05-06T05:38:45.224Z,99.99
2023-05-06T05:39:45.221Z,99.99
2023-05-06T05:40:45.206Z,99.99
2023-05-06T05:41:45.226Z,99.99
2023-05-06T05:42:45.182Z,99.99
2023-05-06T05:43:45.196Z,99.99
2023-05-06T05:44:45.174Z,99.99
2023-05-06T05:45:45.154Z,99.99
2023-05-06T05:46:45.247Z,99.99
2023-05-06T05:47:45.142Z,99.99
2023-05-06T05:48:45.116Z,99.99
2023-05-06T05:49:45.136Z,99.99
2023-05-06T05:50:45.097Z,99.99
2023-05-06T05:51:45.093Z,99.99
2023-05-06T05:52:45.093Z,99.99
2023-05-06T05:53:45.080Z,99.99
2023-05-06T05:54:45.049Z,99.99
2023-05-06T05:55:45.053Z,99.99
2023-05-06T05:56:45.036Z,99.99
2023-05-06T05:57:45.116Z,99.99
2023-05-06T05:58:45.018Z,99.99
2023-05-06T05:59:45.000Z,99.99
2023-05-06T06:00:45.004Z,99.99
2023-05-06T06:01:45.017Z,99.99
2023-05-06T06:02:45.117Z,99.99
2023-05-06T06:03:45.113Z,99.99
2023-05-06T06:04:44.995Z,99.99
2023-05-06T06:05:44.930Z,99.99
2023-05-06T06:06:44.919Z,99.99
2023-05-06T06:07:44.920Z,99.99
2023-05-06T06:08:44.903Z,99.99
2023-05-06T06:09:44.886Z,99.99
2023-05-06T06:10:44.880Z,99.99
2023-05-06T06:11:44.863Z,99.99
2023-05-06T06:12:44.891Z,99.99
2023-05-06T06:13:45.007Z,99.99
2023-05-06T06:14:44.839Z,99.99
2023-05-06T06:15:44.820Z,99.99
2023-05-06T06:16:44.914Z,97.73
2023-05-06T06:17:44.824Z,97.48
2023-05-06T06:18:44.833Z,99.02
2023-05-06T06:19:44.788Z,99.43
2023-05-06T06:20:44.773Z,99.99
2023-05-06T06:21:44.753Z,99.99
2023-05-06T06:22:44.743Z,99.99
2023-05-06T06:23:44.733Z,99.99
2023-05-06T06:24:44.730Z,99.99
2023-05-06T06:25:44.733Z,99.99
2023-05-06T06:26:44.697Z,99.99
2023-05-06T06:27:44.697Z,98.12
2023-05-06T06:28:44.773Z,97.87
2023-05-06T06:29:44.762Z,96.70
2023-05-06T06:30:44.662Z,95.02
2023-05-06T06:31:44.762Z,94.87
2023-05-06T06:32:44.657Z,96.55
2023-05-06T06:33:44.642Z,96.29
2023-05-06T06:34:44.612Z,97.37
2023-05-06T06:35:44.608Z,96.25
2023-05-06T06:36:44.594Z,95.94
2023-05-06T06:37:44.604Z,95.43
2023-05-06T06:38:44.587Z,96.66
2023-05-06T06:39:44.582Z,96.25
2023-05-06T06:40:44.554Z,97.33
2023-05-06T06:41:44.544Z,97.42
2023-05-06T06:42:44.531Z,97.38
2023-05-06T06:43:44.534Z,94.77
2023-05-06T06:44:52.177Z,95.43
2023-05-06T06:45:44.543Z,94.92
2023-05-06T06:46:44.492Z,97.72
2023-05-06T06:47:44.511Z,98.03
2023-05-06T06:48:44.463Z,98.90
2023-05-06T06:49:44.471Z,99.99
2023-05-06T06:50:44.442Z,99.99
2023-05-06T06:51:44.461Z,99.99
2023-05-06T06:52:44.420Z,99.99
2023-05-06T06:53:44.408Z,99.99
2023-05-06T06:54:44.411Z,99.99
2023-05-06T06:55:44.388Z,99.91
2023-05-06T06:56:44.387Z,99.99
2023-05-06T06:57:44.375Z,99.99
2023-05-06T06:58:44.365Z,99.99
2023-05-06T06:59:44.361Z,99.65
2023-05-06T07:00:44.548Z,99.99
2023-05-06T07:01:44.438Z,98.42
2023-05-06T07:02:44.393Z,97.34
2023-05-06T07:03:44.308Z,96.67
2023-05-06T07:04:44.479Z,97.65
2023-05-06T07:05:44.357Z,98.07
2023-05-06T07:06:44.350Z,97.81
2023-05-06T07:07:44.348Z,99.70
2023-05-06T07:08:44.339Z,99.09
2023-05-06T07:09:44.468Z,99.99
2023-05-06T07:10:44.220Z,99.99
2023-05-06T07:11:44.232Z,99.99
2023-05-06T07:12:44.224Z,99.99
2023-05-06T07:13:44.210Z,99.99
2023-05-06T07:14:44.178Z,99.99
2023-05-06T07:15:44.177Z,99.99
2023-05-06T07:16:46.412Z,99.99
2023-05-06T07:17:44.206Z,99.99
2023-05-06T07:18:44.142Z,99.99
2023-05-06T07:19:44.148Z,99.99
2023-05-06T07:20:44.104Z,99.99
2023-05-06T07:21:44.099Z,99.99
2023-05-06T07:22:44.140Z,99.99
2023-05-06T07:23:44.091Z,99.99
2023-05-06T07:24:44.073Z,99.99
2023-05-06T07:25:44.060Z,99.99
2023-05-06T07:26:44.038Z,99.99
2023-05-06T07:27:44.032Z,99.34
2023-05-06T07:28:44.030Z,99.60
2023-05-06T07:29:44.017Z,99.99
2023-05-06T07:30:43.995Z,99.29
2023-05-06T07:31:43.997Z,98.99
2023-05-06T07:32:44.168Z,99.99
2023-05-06T07:33:43.976Z,99.29
2023-05-06T07:34:43.950Z,98.22
2023-05-06T07:35:43.955Z,99.35
2023-05-06T07:36:43.932Z,98.12
2023-05-06T07:37:43.917Z,97.56
2023-05-06T07:38:43.904Z,96.17
2023-05-06T07:39:43.916Z,94.80
2023-05-06T07:40:43.879Z,94.85
2023-05-06T07:41:43.889Z,96.59
2023-05-06T07:42:43.858Z,97.78
2023-05-06T07:43:43.860Z,96.04
2023-05-06T07:44:43.845Z,95.22
2023-05-06T07:45:43.853Z,93.03
2023-05-06T07:46:43.883Z,91.50
2023-05-06T07:47:43.887Z,93.03
2023-05-06T07:48:43.966Z,93.13
2023-05-06T07:49:43.783Z,91.96
2023-05-06T07:50:43.771Z,91.25
2023-05-06T07:51:43.778Z,89.37
2023-05-06T07:52:43.751Z,89.11
2023-05-06T07:53:43.788Z,89.82
2023-05-06T07:54:43.735Z,91.16
2023-05-06T07:55:43.715Z,88.63
2023-05-06T07:56:43.704Z,89.83
2023-05-06T07:57:43.694Z,88.26
2023-05-06T07:58:43.686Z,87.98
2023-05-06T07:59:43.702Z,85.27
2023-05-06T08:00:43.666Z,88.48
2023-05-06T08:01:43.653Z,82.54
2023-05-06T08:02:43.759Z,84.95
2023-05-06T08:03:43.876Z,85.55
2023-05-06T08:04:43.803Z,87.69
2023-05-06T08:05:43.621Z,84.95
2023-05-06T08:06:43.612Z,81.67
2023-05-06T08:07:43.591Z,88.34
2023-05-06T08:08:43.571Z,89.36
2023-05-06T08:09:43.580Z,88.30
2023-05-06T08:10:43.577Z,87.38
2023-05-06T08:11:43.569Z,85.62
2023-05-06T08:12:43.552Z,85.38
2023-05-06T08:13:43.523Z,82.40
2023-05-06T08:14:43.514Z,82.10
2023-05-06T08:15:43.513Z,85.52
2023-05-06T08:16:43.672Z,86.69
2023-05-06T08:17:43.528Z,85.41
2023-05-06T08:18:43.466Z,83.42
2023-05-06T08:19:43.459Z,83.93
2023-05-06T08:20:43.546Z,85.05
2023-05-06T08:21:43.457Z,84.72
2023-05-06T08:22:43.423Z,83.84
2023-05-06T08:23:43.432Z,86.69
2023-05-06T08:24:43.443Z,85.46
2023-05-06T08:25:43.413Z,84.60
2023-05-06T08:26:43.383Z,82.33
2023-05-06T08:27:43.374Z,81.72
2023-05-06T08:28:43.357Z,83.47
2023-05-06T08:29:43.364Z,79.25
2023-05-06T08:30:43.354Z,81.72
2023-05-06T08:31:43.402Z,81.64
2023-05-06T08:32:43.344Z,81.60
2023-05-06T08:33:43.309Z,79.17
2023-05-06T08:34:43.289Z,80.22
2023-05-06T08:35:43.296Z,81.27
2023-05-06T08:36:43.469Z,83.63
2023-05-06T08:37:43.264Z,77.31
2023-05-06T08:38:43.252Z,79.27
2023-05-06T08:39:43.249Z,78.33
2023-05-06T08:40:43.247Z,79.68
2023-05-06T08:41:43.230Z,78.02
2023-05-06T08:42:43.207Z,76.97
2023-05-06T08:43:43.225Z,78.75
2023-05-06T08:44:43.185Z,76.90
2023-05-06T08:45:43.217Z,78.96
2023-05-06T08:46:43.164Z,74.60
2023-05-06T08:47:43.191Z,77.37
2023-05-06T08:48:43.145Z,79.67
2023-05-06T08:49:43.136Z,77.28
2023-05-06T08:50:43.177Z,74.74
2023-05-06T08:51:43.116Z,75.96
2023-05-06T08:52:43.198Z,77.55
2023-05-06T08:53:43.098Z,76.20
2023-05-06T08:54:43.082Z,74.00
2023-05-06T08:55:43.068Z,75.08
2023-05-06T08:56:43.067Z,76.13
2023-05-06T08:57:43.065Z,72.72
2023-05-06T08:58:43.046Z,75.25
2023-05-06T08:59:43.042Z,76.03
2023-05-06T09:00:43.013Z,74.27
2023-05-06T09:01:43.083Z,74.20
2023-05-06T09:02:43.426Z,76.32
2023-05-06T09:03:42.991Z,74.77
2023-05-06T09:04:42.981Z,74.27
2023-05-06T09:05:42.994Z,77.24
2023-05-06T09:06:42.979Z,76.23
2023-05-06T09:07:42.963Z,77.44
2023-05-06T09:08:43.019Z,73.96
2023-05-06T09:09:42.917Z,75.38
2023-05-06T09:10:42.909Z,77.26
2023-05-06T09:11:42.906Z,75.98
2023-05-06T09:12:42.902Z,73.79
2023-05-06T09:13:42.869Z,74.60
2023-05-06T09:14:42.875Z,72.27
2023-05-06T09:15:42.876Z,73.46
2023-05-06T09:16:42.887Z,71.84
2023-05-06T09:17:42.873Z,77.19
2023-05-06T09:18:42.819Z,72.34
2023-05-06T09:19:42.804Z,75.17
2023-05-06T09:20:42.806Z,74.03
2023-05-06T09:21:42.798Z,77.14
2023-05-06T09:22:42.773Z,76.70
2023-05-06T09:23:42.773Z,75.72
2023-05-06T09:24:42.849Z,76.19
2023-05-06T09:25:42.770Z,76.39
2023-05-06T09:26:42.743Z,75.58
2023-05-06T09:27:42.719Z,76.29
2023-05-06T09:28:42.712Z,77.00
2023-05-06T09:29:42.713Z,73.69
2023-05-06T09:30:42.740Z,77.14
2023-05-06T09:31:42.687Z,77.71
2023-05-06T09:32:42.697Z,77.50
2023-05-06T09:33:42.654Z,77.17
2023-05-06T09:34:42.670Z,72.44
2023-05-06T09:35:42.665Z,77.00
2023-05-06T09:36:42.624Z,78.44
2023-05-06T09:37:42.656Z,72.92
2023-05-06T09:38:42.614Z,74.07
2023-05-06T09:39:42.598Z,76.97
2023-05-06T09:40:42.681Z,72.75
2023-05-06T09:41:42.580Z,74.27
2023-05-06T09:42:42.555Z,76.29
2023-05-06T09:43:42.545Z,74.57
2023-05-06T09:44:42.551Z,73.56
2023-05-06T09:45:42.522Z,73.72
2023-05-06T09:46:42.601Z,75.55
2023-05-06T09:47:42.537Z,73.46
2023-05-06T09:48:42.490Z,76.35
2023-05-06T09:49:42.476Z,73.63
2023-05-06T09:50:42.471Z,73.63
2023-05-06T09:51:42.501Z,75.95
2023-05-06T09:52:42.460Z,74.03
2023-05-06T09:53:42.443Z,75.57
2023-05-06T09:54:42.424Z,73.90
2023-05-06T09:55:42.422Z,74.03
2023-05-06T09:56:42.527Z,74.74
2023-05-06T09:57:42.396Z,75.99
2023-05-06T09:58:42.383Z,74.03
2023-05-06T09:59:42.376Z,74.54
2023-05-06T10:00:42.383Z,76.39
2023-05-06T10:01:42.369Z,75.10
2023-05-06T10:02:42.449Z,71.57
2023-05-06T10:03:42.477Z,72.95
2023-05-06T10:04:42.573Z,73.69
2023-05-06T10:05:42.316Z,71.80
2023-05-06T10:06:42.292Z,71.77
2023-05-06T10:07:42.290Z,72.48
2023-05-06T10:08:42.279Z,71.84
2023-05-06T10:09:42.258Z,71.80
2023-05-06T10:10:42.262Z,71.64
2023-05-06T10:11:42.248Z,73.89
2023-05-06T10:12:42.682Z,70.36
2023-05-06T10:13:42.220Z,69.45
2023-05-06T10:14:42.206Z,70.36
2023-05-06T10:15:42.250Z,70.56
2023-05-06T10:16:42.315Z,70.76
2023-05-06T10:17:42.214Z,69.21
2023-05-06T10:18:42.161Z,67.97
2023-05-06T10:19:42.148Z,71.26
2023-05-06T10:20:42.138Z,68.71
2023-05-06T10:21:42.132Z,67.43
2023-05-06T10:22:42.129Z,67.43
2023-05-06T10:23:42.121Z,70.66
2023-05-06T10:24:42.102Z,64.61
2023-05-06T10:25:42.084Z,68.81
2023-05-06T10:26:42.076Z,68.41
2023-05-06T10:27:42.067Z,66.46
2023-05-06T10:28:42.075Z,69.79
2023-05-06T10:29:42.050Z,67.93
2023-05-06T10:30:42.036Z,67.33
2023-05-06T10:31:42.049Z,66.86
2023-05-06T10:32:42.045Z,67.56
2023-05-06T10:33:42.520Z,65.51
2023-05-06T10:34:41.980Z,65.92
2023-05-06T10:35:41.989Z,63.67
2023-05-06T10:36:41.965Z,62.96
2023-05-06T10:37:41.959Z,60.51
2023-05-06T10:38:41.956Z,60.71
2023-05-06T10:39:42.317Z,61.92
2023-05-06T10:40:41.916Z,59.53
2023-05-06T10:41:41.921Z,60.33
2023-05-06T10:42:41.931Z,60.03
2023-05-06T10:43:41.890Z,61.24
2023-05-06T10:44:42.003Z,60.84
2023-05-06T10:45:41.892Z,63.46
2023-05-06T10:46:41.856Z,63.16
2023-05-06T10:47:41.891Z,62.25
2023-05-06T10:48:41.840Z,62.08
2023-05-06T10:49:41.836Z,61.17
2023-05-06T10:50:41.823Z,63.03
2023-05-06T10:51:41.792Z,63.53
2023-05-06T10:52:41.783Z,63.84
2023-05-06T10:53:41.791Z,61.85
2023-05-06T10:54:41.769Z,62.05
2023-05-06T10:55:41.759Z,65.42
2023-05-06T10:56:41.740Z,63.92
2023-05-06T10:57:41.726Z,64.49
2023-05-06T10:58:41.727Z,60.36
2023-05-06T10:59:41.712Z,59.48
2023-05-06T11:00:42.019Z,61.87
2023-05-06T11:01:41.692Z,63.11
2023-05-06T11:02:41.735Z,63.21
2023-05-06T11:03:41.686Z,64.78
2023-05-06T11:04:41.661Z,60.08
2023-05-06T11:05:41.653Z,62.52
2023-05-06T11:06:41.638Z,62.96
2023-05-06T11:07:41.617Z,63.26
2023-05-06T11:08:41.610Z,64.98
2023-05-06T11:09:41.614Z,64.87
2023-05-06T11:10:41.589Z,65.78
2023-05-06T11:11:41.603Z,64.87
2023-05-06T11:12:41.616Z,66.29
2023-05-06T11:13:41.555Z,67.40
2023-05-06T11:14:41.549Z,67.27
2023-05-06T11:15:41.533Z,65.55
2023-05-06T11:16:41.710Z,65.85
2023-05-06T11:17:41.553Z,64.78
2023-05-06T11:18:41.513Z,66.39
2023-05-06T11:19:41.490Z,66.79
2023-05-06T11:20:41.485Z,67.10
2023-05-06T11:21:41.559Z,67.10
2023-05-06T11:22:41.464Z,68.10
2023-05-06T11:23:41.470Z,66.22
2023-05-06T11:24:41.440Z,66.96
2023-05-06T11:25:41.540Z,67.50
2023-05-06T11:26:41.434Z,68.01
2023-05-06T11:27:41.404Z,67.19
2023-05-06T11:28:41.402Z,67.40
2023-05-06T11:29:41.407Z,64.78
2023-05-06T11:30:41.446Z,67.10
2023-05-06T11:31:41.392Z,67.02
2023-05-06T11:32:41.449Z,65.21
2023-05-06T11:33:41.337Z,66.52
2023-05-06T11:34:41.342Z,65.11
2023-05-06T11:35:41.326Z,66.19
2023-05-06T11:36:41.320Z,64.30
2023-05-06T11:37:41.315Z,65.81
2023-05-06T11:38:41.288Z,64.27
2023-05-06T11:39:41.299Z,65.75
2023-05-06T11:40:41.283Z,64.04
2023-05-06T11:41:41.254Z,61.79
2023-05-06T11:42:41.247Z,64.61
2023-05-06T11:43:41.232Z,64.41
2023-05-06T11:44:41.229Z,63.33
2023-05-06T11:45:41.223Z,64.44
2023-05-06T11:46:41.268Z,63.64
2023-05-06T11:47:41.236Z,65.25
2023-05-06T11:48:41.203Z,65.05
2023-05-06T11:49:41.171Z,63.81
2023-05-06T11:50:41.161Z,62.26
2023-05-06T11:51:41.156Z,61.08
2023-05-06T11:52:41.152Z,64.41
2023-05-06T11:53:41.125Z,63.10
2023-05-06T11:54:41.182Z,60.55
2023-05-06T11:55:41.103Z,63.14
2023-05-06T11:56:41.109Z,63.04
2023-05-06T11:57:41.090Z,62.01
2023-05-06T11:58:41.097Z,60.44
2023-05-06T11:59:41.057Z,61.38
2023-05-06T12:00:41.051Z,60.25
2023-05-06T12:01:41.036Z,57.74
2023-05-06T12:02:41.050Z,58.50
2023-05-06T12:03:41.212Z,60.44
2023-05-06T12:04:41.207Z,58.95
2023-05-06T12:05:40.993Z,58.58
2023-05-06T12:06:40.986Z,59.56
2023-05-06T12:07:40.977Z,60.19
2023-05-06T12:08:40.975Z,60.42
2023-05-06T12:09:40.955Z,59.95
2023-05-06T12:10:40.951Z,60.58
2023-05-06T12:11:42.565Z,59.77
2023-05-06T12:12:40.960Z,60.35
2023-05-06T12:13:40.922Z,61.20
2023-05-06T12:14:40.900Z,59.06
2023-05-06T12:15:40.884Z,59.63
2023-05-06T12:16:41.035Z,58.42
2023-05-06T12:17:40.872Z,61.54
2023-05-06T12:18:40.859Z,60.33
2023-05-06T12:19:40.858Z,58.95
2023-05-06T12:20:40.942Z,59.08
2023-05-06T12:21:40.819Z,59.89
2023-05-06T12:22:40.822Z,61.90
2023-05-06T12:23:40.812Z,60.24
2023-05-06T12:24:40.790Z,57.82
2023-05-06T12:25:40.787Z,57.62
2023-05-06T12:26:40.769Z,58.02
2023-05-06T12:27:40.753Z,57.82
2023-05-06T12:28:40.758Z,59.00
2023-05-06T12:29:40.739Z,58.64
2023-05-06T12:30:40.753Z,58.29
2023-05-06T12:31:40.796Z,57.32
2023-05-06T12:32:40.734Z,57.24
2023-05-06T12:33:40.690Z,57.95
2023-05-06T12:34:40.720Z,58.12
2023-05-06T12:35:40.685Z,58.40
2023-05-06T12:36:40.686Z,56.49
2023-05-06T12:37:40.652Z,57.46
2023-05-06T12:38:40.651Z,56.66
2023-05-06T12:39:40.649Z,56.76
2023-05-06T12:40:40.639Z,58.51
2023-05-06T12:41:40.606Z,57.28
2023-05-06T12:42:40.609Z,53.47
2023-05-06T12:43:40.585Z,54.17
2023-05-06T12:44:40.581Z,52.55
2023-05-06T12:45:40.582Z,53.55
2023-05-06T12:46:40.565Z,54.72
2023-05-06T12:47:40.570Z,51.94
2023-05-06T12:48:40.554Z,54.77
2023-05-06T12:49:40.519Z,54.88
2023-05-06T12:50:40.524Z,55.40
2023-05-06T12:51:40.496Z,54.17
2023-05-06T12:52:40.545Z,52.39